aviador You're here:

KHSA Decoded Metar

BAY ST LOUIS in MS, USA
Report Time2017-09-23 16:55:00
UTC Time2017-09-23 18:22:54
Flight Rules Old
Wind090° at 04 kt
W.Decomp.*RWY 36: 0.1 kt HW 4.0 kt RCW
W.Rank090° ranks 23
Current wind is below 090° avg. (5.7)
Visibility9999 m
Phenomena:N/A
Clouds:N/A
Expected CloudBase > 3,200 ft AGL from Temp-Dew spread
CeilingNone
Temp30°C (ISA +15)
Dew Point22°C (62% RH)
Heat Index33.2°C
QNH1015 hPa
Density Alt2,028 ft
Elevation23 ft
Report Wrong Elevation
Raw Report
KHSA 231655Z 09004KT 10SM CLR 30/22 A2997=

Extra information for KHSA:More info

Metar Taf Metar & Taf Last 4 Metars F.Rules Stats Wind Profile Meteogram Temp Stats Airport Information Weather charts Add Link Nearby VenuesMetar ALERT Operation Metar Decoded Social comments

AIRNAV info for KHSA